createdAt,value
2023-05-14T00:02:04.499Z,14.20
2023-05-14T00:04:32.649Z,14.65
2023-05-14T00:07:00.964Z,14.50
2023-05-14T00:09:30.518Z,13.07
2023-05-14T00:11:58.598Z,13.63
2023-05-14T00:14:26.668Z,14.38
2023-05-14T00:16:54.701Z,14.05
2023-05-14T00:19:22.730Z,11.02
2023-05-14T00:21:50.769Z,10.88
2023-05-14T00:24:18.697Z,11.65
2023-05-14T00:26:49.083Z,13.77
2023-05-14T00:29:17.193Z,11.90
2023-05-14T00:31:45.295Z,12.10
2023-05-14T00:34:13.437Z,11.38
2023-05-14T00:36:41.400Z,12.15
2023-05-14T00:39:09.517Z,11.15
2023-05-14T00:41:37.601Z,11.25
2023-05-14T00:44:07.097Z,13.65
2023-05-14T00:46:35.250Z,12.65
2023-05-14T00:49:03.395Z,12.93
2023-05-14T00:51:31.766Z,12.05
2023-05-14T00:54:00.002Z,11.15
2023-05-14T00:56:29.159Z,11.80
2023-05-14T00:58:57.161Z,11.70
2023-05-14T01:01:28.588Z,10.85
2023-05-14T01:03:58.182Z,9.60
2023-05-14T01:06:35.785Z,9.05
2023-05-14T01:09:09.930Z,8.63
2023-05-14T01:11:44.565Z,8.48
2023-05-14T01:14:19.206Z,8.05
2023-05-14T01:16:50.701Z,9.15
2023-05-14T01:19:27.881Z,10.30
2023-05-14T01:21:57.387Z,10.27
2023-05-14T01:24:25.335Z,9.70
2023-05-14T01:26:54.869Z,8.23
2023-05-14T01:29:24.262Z,8.35
2023-05-14T01:31:54.618Z,6.32
2023-05-14T01:34:25.548Z,5.20
2023-05-14T01:36:54.537Z,5.45
2023-05-14T01:39:25.065Z,6.70
2023-05-14T01:41:53.475Z,6.43
2023-05-14T01:44:22.561Z,6.85
2023-05-14T01:46:50.694Z,5.80
2023-05-14T01:49:19.753Z,5.65
2023-05-14T01:51:47.837Z,5.32
2023-05-14T01:54:15.798Z,4.65
2023-05-14T01:56:45.174Z,5.38
2023-05-14T01:59:13.260Z,4.97
2023-05-14T02:01:41.399Z,4.82
2023-05-14T02:04:09.862Z,4.25
2023-05-14T02:06:37.873Z,3.65
2023-05-14T02:09:06.251Z,4.65
2023-05-14T02:11:34.717Z,4.22
2023-05-14T02:14:05.108Z,4.78
2023-05-14T02:16:33.162Z,7.32
2023-05-14T02:19:01.256Z,8.25
2023-05-14T02:21:49.501Z,7.10
2023-05-14T02:24:17.719Z,4.88
2023-05-14T02:26:45.796Z,4.75
2023-05-14T02:29:15.310Z,4.53
2023-05-14T02:31:43.619Z,4.20
2023-05-14T02:34:11.797Z,5.20
2023-05-14T02:36:40.115Z,4.85
2023-05-14T02:39:08.102Z,5.18
2023-05-14T02:41:36.037Z,5.85
2023-05-14T02:44:04.091Z,5.30
2023-05-14T02:46:33.717Z,4.72
2023-05-14T02:49:03.186Z,4.57
2023-05-14T02:51:31.437Z,4.90
2023-05-14T02:53:59.378Z,5.03
2023-05-14T02:56:27.557Z,5.15
2023-05-14T02:58:55.615Z,5.18
2023-05-14T03:01:24.343Z,5.32
2023-05-14T03:03:54.218Z,4.97
2023-05-14T03:06:22.293Z,5.13
2023-05-14T03:08:50.609Z,4.95
2023-05-14T03:11:18.761Z,5.20
2023-05-14T03:13:46.790Z,4.88
2023-05-14T03:16:14.802Z,5.38
2023-05-14T03:18:42.945Z,4.68
2023-05-14T03:21:12.428Z,4.95
2023-05-14T03:23:40.592Z,4.93
2023-05-14T03:26:08.604Z,5.22
2023-05-14T03:28:36.652Z,4.97
2023-05-14T03:31:04.979Z,5.38
2023-05-14T03:33:33.107Z,4.97
2023-05-14T03:36:01.104Z,6.60
2023-05-14T03:38:30.477Z,4.82
2023-05-14T03:40:58.924Z,4.90
2023-05-14T03:43:27.500Z,5.00
2023-05-14T03:45:56.185Z,5.10
2023-05-14T03:48:24.411Z,6.00
2023-05-14T03:50:52.553Z,6.05
2023-05-14T03:53:20.622Z,5.50
2023-05-14T03:55:50.121Z,5.57
2023-05-14T03:58:18.229Z,4.80
2023-05-14T04:00:46.229Z,5.10
2023-05-14T04:03:14.318Z,4.68
2023-05-14T04:05:42.490Z,4.60
2023-05-14T04:08:10.630Z,4.38
2023-05-14T04:10:38.749Z,2.78
2023-05-14T04:13:08.154Z,4.45
2023-05-14T04:15:40.044Z,3.90
2023-05-14T04:18:09.246Z,3.58
2023-05-14T04:20:37.815Z,3.83
2023-05-14T04:23:06.541Z,3.17
2023-05-14T04:25:34.601Z,3.45
2023-05-14T04:28:02.663Z,2.88
2023-05-14T04:30:32.172Z,3.25
2023-05-14T04:33:00.504Z,3.38
2023-05-14T04:35:28.477Z,3.20
2023-05-14T04:37:56.691Z,3.10
2023-05-14T04:40:25.000Z,2.60
2023-05-14T04:42:53.246Z,2.80
2023-05-14T04:45:21.439Z,2.83
2023-05-14T04:47:51.429Z,3.00
2023-05-14T04:50:19.640Z,2.53
2023-05-14T04:52:47.626Z,2.72
2023-05-14T04:55:15.689Z,2.80
2023-05-14T04:57:43.808Z,2.55
2023-05-14T05:00:13.261Z,2.40
2023-05-14T05:02:41.596Z,2.60
2023-05-14T05:05:11.640Z,2.72
2023-05-14T05:07:39.759Z,2.17
2023-05-14T05:10:09.311Z,2.53
2023-05-14T05:12:37.441Z,2.40
2023-05-14T05:15:06.322Z,2.40
2023-05-14T05:17:34.662Z,2.50
2023-05-14T05:20:03.970Z,2.40
2023-05-14T05:22:33.501Z,2.20
2023-05-14T05:25:01.497Z,2.55
2023-05-14T05:27:31.108Z,2.53
2023-05-14T05:29:59.324Z,2.30
2023-05-14T05:32:27.537Z,2.40
2023-05-14T05:34:55.746Z,1.77
2023-05-14T05:37:23.884Z,2.10
2023-05-14T05:39:54.496Z,2.30
2023-05-14T05:42:22.591Z,2.22
2023-05-14T05:44:50.674Z,2.30
2023-05-14T05:47:18.918Z,2.20
2023-05-14T05:49:47.065Z,2.08
2023-05-14T05:52:15.049Z,2.22
2023-05-14T05:54:43.039Z,2.30
2023-05-14T05:57:12.542Z,2.60
2023-05-14T05:59:40.516Z,2.00
2023-05-14T06:02:08.671Z,2.20
2023-05-14T06:04:36.762Z,2.60
2023-05-14T06:07:05.090Z,2.20
2023-05-14T06:09:33.143Z,2.65
2023-05-14T06:12:01.282Z,2.40
2023-05-14T06:14:30.600Z,2.75
2023-05-14T06:16:58.734Z,2.50
2023-05-14T06:19:26.849Z,2.40
2023-05-14T06:21:54.875Z,2.47
2023-05-14T06:24:22.848Z,2.17
2023-05-14T06:26:50.902Z,2.30
2023-05-14T06:29:18.878Z,2.50
2023-05-14T06:31:48.509Z,2.85
2023-05-14T06:34:16.761Z,2.47
2023-05-14T06:36:44.888Z,2.78
2023-05-14T06:39:12.907Z,2.60
2023-05-14T06:41:40.924Z,2.90
2023-05-14T06:44:11.094Z,3.20
2023-05-14T06:46:39.190Z,3.25
2023-05-14T06:49:08.619Z,3.03
2023-05-14T06:51:36.850Z,2.50
2023-05-14T06:54:05.098Z,3.72
2023-05-14T06:56:33.212Z,3.08
2023-05-14T06:59:01.262Z,3.85
2023-05-14T07:01:30.461Z,3.10
2023-05-14T07:03:58.542Z,3.20
2023-05-14T07:06:28.011Z,3.22
2023-05-14T07:08:56.156Z,3.63
2023-05-14T07:11:24.152Z,2.92
2023-05-14T07:13:52.258Z,2.85
2023-05-14T07:16:20.804Z,2.95
2023-05-14T07:18:48.816Z,3.47
2023-05-14T07:21:16.845Z,3.28
2023-05-14T07:23:46.303Z,3.50
2023-05-14T07:26:14.335Z,2.92
2023-05-14T07:28:43.189Z,3.00
2023-05-14T07:31:11.359Z,3.17
2023-05-14T07:33:39.520Z,3.10
2023-05-14T07:36:08.923Z,3.15
2023-05-14T07:38:37.011Z,3.42
2023-05-14T07:41:06.593Z,2.75
2023-05-14T07:43:34.636Z,3.13
2023-05-14T07:46:02.797Z,3.38
2023-05-14T07:48:30.794Z,3.65
2023-05-14T07:50:58.888Z,3.20
2023-05-14T07:53:26.942Z,4.45
2023-05-14T07:55:55.064Z,3.90
2023-05-14T07:58:25.186Z,3.97
2023-05-14T08:00:53.390Z,3.80
2023-05-14T08:03:21.591Z,3.42
2023-05-14T08:05:49.652Z,3.50
2023-05-14T08:08:17.809Z,3.95
2023-05-14T08:10:45.889Z,3.53
2023-05-14T08:13:14.065Z,3.50
2023-05-14T08:15:43.488Z,3.53
2023-05-14T08:18:11.564Z,3.53
2023-05-14T08:20:39.662Z,3.50
2023-05-14T08:23:08.414Z,3.42
2023-05-14T08:25:36.515Z,3.53
2023-05-14T08:28:05.171Z,3.00
2023-05-14T08:30:33.298Z,4.00
2023-05-14T08:33:02.817Z,3.55
2023-05-14T08:35:31.106Z,3.38
2023-05-14T08:37:59.138Z,2.88
2023-05-14T08:40:27.999Z,3.00
2023-05-14T08:42:57.928Z,3.00
2023-05-14T08:45:30.789Z,2.95
2023-05-14T08:48:00.540Z,2.88
2023-05-14T08:50:31.255Z,3.00
2023-05-14T08:52:59.896Z,2.67
2023-05-14T08:55:29.232Z,3.20
2023-05-14T08:57:57.264Z,3.75
2023-05-14T09:00:26.649Z,2.78
2023-05-14T09:02:56.312Z,3.35
2023-05-14T09:05:25.336Z,3.10
2023-05-14T09:07:54.760Z,2.63
2023-05-14T09:10:23.133Z,2.90
2023-05-14T09:12:51.688Z,2.70
2023-05-14T09:15:19.960Z,6.40
2023-05-14T09:17:49.287Z,4.80
2023-05-14T09:20:17.846Z,3.72
2023-05-14T09:22:45.923Z,3.42
2023-05-14T09:25:15.367Z,3.50
2023-05-14T09:27:43.497Z,5.93
2023-05-14T09:30:13.477Z,4.00
2023-05-14T09:32:44.030Z,3.40
2023-05-14T09:35:14.774Z,4.30
2023-05-14T09:37:43.940Z,3.28
2023-05-14T09:40:12.399Z,4.30
2023-05-14T09:42:42.037Z,4.72
2023-05-14T09:45:11.265Z,3.25
2023-05-14T09:47:40.869Z,3.58
2023-05-14T09:50:10.052Z,4.00
2023-05-14T09:52:38.454Z,3.13
2023-05-14T09:55:08.127Z,3.20
2023-05-14T09:57:36.626Z,3.90
2023-05-14T10:00:08.939Z,3.25
2023-05-14T10:02:40.648Z,4.15
2023-05-14T10:05:09.685Z,2.88
2023-05-14T10:07:41.635Z,3.78
2023-05-14T10:10:14.718Z,3.08
2023-05-14T10:12:45.203Z,2.95
2023-05-14T10:15:21.080Z,3.22
2023-05-14T10:17:54.731Z,2.90
2023-05-14T10:20:25.154Z,3.22
2023-05-14T10:22:53.647Z,3.13
2023-05-14T10:25:22.536Z,2.70
2023-05-14T10:27:51.118Z,2.90
2023-05-14T10:30:23.019Z,2.67
2023-05-14T10:35:25.402Z,3.25
2023-05-14T10:37:53.635Z,2.70
2023-05-14T10:40:26.077Z,2.78
2023-05-14T10:42:55.999Z,2.95
2023-05-14T10:45:25.732Z,3.30
2023-05-14T10:47:54.911Z,2.40
2023-05-14T10:50:23.718Z,2.92
2023-05-14T10:52:53.220Z,3.08
2023-05-14T10:55:22.901Z,3.45
2023-05-14T10:57:53.441Z,3.20
2023-05-14T11:00:21.613Z,2.35
2023-05-14T11:02:51.610Z,3.25
2023-05-14T11:05:19.723Z,3.10
2023-05-14T11:07:49.440Z,2.80
2023-05-14T11:10:19.165Z,2.70
2023-05-14T11:12:49.159Z,2.60
2023-05-14T11:15:18.897Z,2.58
2023-05-14T11:17:48.562Z,2.90
2023-05-14T11:20:19.266Z,2.58
2023-05-14T11:22:48.955Z,2.83
2023-05-14T11:25:18.382Z,2.38
2023-05-14T11:27:48.468Z,2.90
2023-05-14T11:30:17.538Z,2.60
2023-05-14T11:32:46.917Z,2.90
2023-05-14T11:35:15.694Z,2.33
2023-05-14T11:37:50.280Z,2.97
2023-05-14T11:40:18.662Z,2.63
2023-05-14T11:42:47.480Z,2.80
2023-05-14T11:45:25.436Z,3.13
2023-05-14T11:47:53.845Z,2.83
2023-05-14T11:50:22.980Z,2.90
2023-05-14T11:52:57.890Z,2.72
2023-05-14T11:55:26.195Z,2.92
2023-05-14T11:57:54.908Z,2.67
2023-05-14T12:00:24.745Z,2.83
2023-05-14T12:02:53.690Z,2.78
2023-05-14T12:05:21.936Z,2.70
2023-05-14T12:07:49.972Z,2.67
2023-05-14T12:10:19.401Z,2.70
2023-05-14T12:12:49.334Z,2.90
2023-05-14T12:15:18.149Z,3.35
2023-05-14T12:17:51.893Z,3.13
2023-05-14T12:20:20.332Z,3.00
2023-05-14T12:22:48.462Z,3.53
2023-05-14T12:25:16.463Z,2.58
2023-05-14T12:27:46.754Z,2.53
2023-05-14T12:35:14.945Z,2.75
2023-05-14T12:37:43.110Z,2.72
2023-05-14T12:40:11.755Z,2.90
2023-05-14T12:42:39.859Z,2.65
2023-05-14T12:45:09.935Z,2.63
2023-05-14T12:47:39.026Z,2.60
2023-05-14T12:50:08.408Z,2.60
2023-05-14T12:52:39.193Z,3.10
2023-05-14T12:55:09.471Z,2.50
2023-05-14T12:57:39.036Z,2.80
2023-05-14T13:00:21.186Z,2.22
2023-05-14T13:02:49.422Z,2.50
2023-05-14T13:05:17.504Z,2.67
2023-05-14T13:07:45.583Z,2.80
2023-05-14T13:10:13.568Z,2.35
2023-05-14T13:12:41.667Z,2.55
2023-05-14T13:15:12.193Z,2.75
2023-05-14T13:17:41.370Z,2.67
2023-05-14T13:20:10.480Z,2.72
2023-05-14T13:22:38.514Z,2.80
2023-05-14T13:25:07.487Z,2.28
2023-05-14T13:27:36.222Z,2.72
2023-05-14T13:30:04.747Z,2.70
2023-05-14T13:32:34.197Z,2.60
2023-05-14T13:35:02.457Z,2.58
2023-05-14T13:37:31.623Z,2.80
2023-05-14T13:39:59.677Z,2.90
2023-05-14T13:42:27.738Z,2.92
2023-05-14T13:44:56.369Z,3.25
2023-05-14T13:47:24.528Z,2.92
2023-05-14T13:49:54.597Z,2.67
2023-05-14T13:52:22.667Z,3.20
2023-05-14T13:54:50.962Z,3.17
2023-05-14T13:57:19.010Z,3.13
2023-05-14T13:59:47.785Z,2.83
2023-05-14T14:02:16.262Z,3.03
2023-05-14T14:04:44.391Z,2.80
2023-05-14T14:07:13.788Z,3.47
2023-05-14T14:09:41.776Z,2.95
2023-05-14T14:12:10.547Z,2.70
2023-05-14T14:14:38.599Z,2.95
2023-05-14T14:17:06.620Z,2.58
2023-05-14T14:19:34.710Z,2.53
2023-05-14T14:22:02.970Z,3.13
2023-05-14T14:24:32.546Z,2.67
2023-05-14T14:27:02.293Z,2.78
2023-05-14T14:29:31.235Z,2.90
2023-05-14T14:31:59.414Z,2.80
2023-05-14T14:34:27.726Z,2.80
2023-05-14T14:36:55.860Z,2.85
2023-05-14T14:39:25.418Z,2.75
2023-05-14T14:41:54.985Z,2.70
2023-05-14T14:44:23.216Z,2.88
2023-05-14T14:46:51.300Z,2.95
2023-05-14T14:49:19.299Z,2.92
2023-05-14T14:51:47.358Z,3.00
2023-05-14T14:54:15.502Z,3.08
2023-05-14T14:56:45.876Z,2.72
2023-05-14T14:59:15.289Z,3.05
2023-05-14T15:01:43.475Z,2.88
2023-05-14T15:04:11.606Z,3.03
2023-05-14T15:06:39.558Z,3.50
2023-05-14T15:09:09.251Z,3.95
2023-05-14T15:11:37.722Z,3.53
2023-05-14T15:14:05.849Z,3.10
2023-05-14T15:16:35.522Z,3.13
2023-05-14T15:19:03.867Z,2.95
2023-05-14T15:21:32.059Z,3.17
2023-05-14T15:24:00.113Z,2.67
2023-05-14T15:26:28.164Z,3.15
2023-05-14T15:28:56.233Z,3.35
2023-05-14T15:31:24.593Z,3.17
2023-05-14T15:33:56.026Z,2.97
2023-05-14T15:36:24.228Z,2.80
2023-05-14T15:38:52.280Z,3.47
2023-05-14T15:41:21.166Z,3.10
2023-05-14T15:43:49.421Z,3.00
2023-05-14T15:46:17.526Z,3.22
2023-05-14T15:48:45.564Z,2.90
2023-05-14T15:51:15.308Z,3.05
2023-05-14T15:53:43.314Z,2.78
2023-05-14T15:56:11.384Z,3.00
2023-05-14T15:58:39.456Z,2.85
2023-05-14T16:01:07.466Z,2.90
2023-05-14T16:03:35.678Z,2.90
2023-05-14T16:06:03.797Z,3.20
2023-05-14T16:08:33.146Z,3.00
2023-05-14T16:11:01.172Z,2.95
2023-05-14T16:13:29.224Z,3.42
2023-05-14T16:15:57.336Z,3.25
2023-05-14T16:18:25.870Z,3.03
2023-05-14T16:20:53.916Z,2.83
2023-05-14T16:23:21.975Z,3.17
2023-05-14T16:25:51.550Z,2.75
2023-05-14T16:28:19.691Z,3.50
2023-05-14T16:30:47.671Z,2.83
2023-05-14T16:33:16.424Z,2.88
2023-05-14T16:35:45.429Z,3.30
2023-05-14T16:38:14.036Z,2.80
2023-05-14T16:40:42.931Z,2.90
2023-05-14T16:43:12.791Z,2.95
2023-05-14T16:45:41.567Z,2.80
2023-05-14T16:48:09.777Z,2.92
2023-05-14T16:50:37.812Z,2.80
2023-05-14T16:53:05.848Z,3.15
2023-05-14T16:55:33.826Z,3.40
2023-05-14T16:58:01.917Z,3.00
2023-05-14T17:00:31.360Z,3.55
2023-05-14T17:02:59.412Z,3.20
2023-05-14T17:05:27.552Z,3.38
2023-05-14T17:07:56.760Z,3.53
2023-05-14T17:10:26.260Z,3.40
2023-05-14T17:12:54.426Z,4.05
2023-05-14T17:15:22.616Z,3.65
2023-05-14T17:17:52.265Z,4.28
2023-05-14T17:20:20.359Z,4.68
2023-05-14T17:22:48.480Z,6.78
2023-05-14T17:25:16.821Z,4.20
2023-05-14T17:27:44.868Z,4.93
2023-05-14T17:30:13.570Z,4.25
2023-05-14T17:32:41.816Z,3.70
2023-05-14T17:35:11.689Z,4.30
2023-05-14T17:37:42.865Z,4.32
2023-05-14T17:40:11.907Z,4.05
2023-05-14T17:42:40.051Z,3.58
2023-05-14T17:45:09.826Z,3.28
2023-05-14T17:47:37.913Z,3.58
2023-05-14T17:50:07.254Z,2.72
2023-05-14T17:52:36.635Z,2.22
2023-05-14T17:55:05.025Z,2.78
2023-05-14T17:57:33.085Z,2.40
2023-05-14T18:00:01.085Z,2.83
2023-05-14T18:02:29.208Z,2.70
2023-05-14T18:04:57.313Z,2.45
2023-05-14T18:07:25.420Z,2.42
2023-05-14T18:09:54.790Z,2.63
2023-05-14T18:12:22.796Z,2.85
2023-05-14T18:14:50.799Z,2.35
2023-05-14T18:17:19.034Z,2.65
2023-05-14T18:19:47.239Z,2.33
2023-05-14T18:22:15.577Z,2.95
2023-05-14T18:24:44.428Z,2.70
2023-05-14T18:27:14.000Z,2.80
2023-05-14T18:29:42.712Z,3.63
2023-05-14T18:32:10.826Z,3.60
2023-05-14T18:34:39.069Z,2.80
2023-05-14T18:37:07.800Z,2.70
2023-05-14T18:39:35.894Z,3.10
2023-05-14T18:42:03.984Z,3.03
2023-05-14T18:44:33.352Z,2.90
2023-05-14T18:47:01.352Z,4.50
2023-05-14T18:49:29.351Z,2.72
2023-05-14T18:51:57.387Z,2.80
2023-05-14T18:54:25.465Z,3.33
2023-05-14T18:56:53.459Z,3.80
2023-05-14T18:59:21.477Z,3.80
2023-05-14T19:01:51.381Z,4.80
2023-05-14T19:04:19.512Z,4.07
2023-05-14T19:06:47.577Z,3.95
2023-05-14T19:09:21.026Z,5.95
2023-05-14T19:11:49.253Z,3.72
2023-05-14T19:14:17.313Z,2.97
2023-05-14T19:16:45.399Z,5.40
2023-05-14T19:19:15.169Z,3.75
2023-05-14T19:21:43.361Z,3.33
2023-05-14T19:24:11.338Z,2.83
2023-05-14T19:26:39.486Z,2.58
2023-05-14T19:29:07.663Z,4.40
2023-05-14T19:31:35.736Z,3.20
2023-05-14T19:34:03.832Z,4.18
2023-05-14T19:36:33.452Z,3.30
2023-05-14T19:39:01.468Z,3.85
2023-05-14T19:41:29.823Z,3.55
2023-05-14T19:43:57.838Z,3.50
2023-05-14T19:46:25.886Z,2.45
2023-05-14T19:48:53.954Z,3.20
2023-05-14T19:51:21.972Z,3.40
2023-05-14T19:53:51.365Z,3.15
2023-05-14T19:56:19.400Z,3.50
2023-05-14T19:58:47.366Z,3.20
2023-05-14T20:01:15.501Z,3.45
2023-05-14T20:03:43.783Z,3.80
2023-05-14T20:06:12.348Z,3.67
2023-05-14T20:08:40.459Z,3.55
2023-05-14T20:11:09.896Z,3.92
2023-05-14T20:13:38.353Z,3.60
2023-05-14T20:16:06.841Z,4.07
2023-05-14T20:18:35.024Z,3.80
2023-05-14T20:21:03.856Z,3.28
2023-05-14T20:23:32.367Z,3.80
2023-05-14T20:26:01.864Z,3.58
2023-05-14T20:28:31.515Z,4.30
2023-05-14T20:31:00.319Z,4.18
2023-05-14T20:33:29.193Z,4.22
2023-05-14T20:35:57.368Z,3.95
2023-05-14T20:38:25.766Z,4.15
2023-05-14T20:40:53.810Z,8.98
2023-05-14T20:43:21.751Z,6.20
2023-05-14T20:45:51.101Z,4.00
2023-05-14T20:48:21.279Z,3.90
2023-05-14T20:50:49.333Z,3.97
2023-05-14T20:53:17.268Z,5.38
2023-05-14T20:55:45.656Z,4.00
2023-05-14T20:58:13.686Z,4.15
2023-05-14T21:00:41.743Z,4.22
2023-05-14T21:03:11.183Z,3.92
2023-05-14T21:05:41.458Z,4.05
2023-05-14T21:08:09.524Z,3.50
2023-05-14T21:10:37.522Z,3.75
2023-05-14T21:13:05.547Z,4.57
2023-05-14T21:15:33.768Z,4.72
2023-05-14T21:18:02.971Z,4.35
2023-05-14T21:20:32.485Z,3.53
2023-05-14T21:23:00.504Z,4.03
2023-05-14T21:25:28.478Z,3.78
2023-05-14T21:27:56.560Z,3.78
2023-05-14T21:30:24.524Z,3.92
2023-05-14T21:32:52.619Z,3.47
2023-05-14T21:35:20.700Z,4.32
2023-05-14T21:37:50.104Z,4.60
2023-05-14T21:40:18.222Z,4.95
2023-05-14T21:42:46.229Z,3.22
2023-05-14T21:45:14.327Z,4.55
2023-05-14T21:47:42.572Z,5.85
2023-05-14T21:50:11.034Z,4.50
2023-05-14T21:52:38.980Z,3.78
2023-05-14T21:55:09.263Z,4.22
2023-05-14T21:57:37.510Z,3.55
2023-05-14T22:00:08.335Z,3.67
2023-05-14T22:02:36.405Z,4.38
2023-05-14T22:05:05.240Z,3.42
2023-05-14T22:07:33.747Z,4.70
2023-05-14T22:10:01.824Z,4.40
2023-05-14T22:12:31.295Z,4.78
2023-05-14T22:14:59.385Z,4.93
2023-05-14T22:17:28.128Z,5.10
2023-05-14T22:19:56.295Z,5.00
2023-05-14T22:22:24.429Z,5.32
2023-05-14T22:24:52.568Z,4.38
2023-05-14T22:27:20.702Z,4.57
2023-05-14T22:29:50.068Z,5.13
2023-05-14T22:32:18.156Z,4.68
2023-05-14T22:34:46.130Z,5.75
2023-05-14T22:37:14.093Z,5.47
2023-05-14T22:39:42.115Z,4.70
2023-05-14T22:42:10.117Z,4.72
2023-05-14T22:44:38.198Z,4.82
2023-05-14T22:47:07.828Z,5.22
2023-05-14T22:49:35.876Z,5.22
2023-05-14T22:52:03.924Z,5.30
2023-05-14T22:54:32.022Z,7.57
2023-05-14T22:57:00.125Z,6.72
2023-05-14T22:59:28.133Z,5.65
2023-05-14T23:01:56.268Z,5.55
2023-05-14T23:04:26.239Z,4.35
2023-05-14T23:06:54.357Z,5.35
2023-05-14T23:09:22.329Z,4.88
2023-05-14T23:11:50.342Z,4.50
2023-05-14T23:14:18.766Z,5.35
2023-05-14T23:16:46.833Z,5.45
2023-05-14T23:19:15.044Z,5.55
2023-05-14T23:21:44.563Z,4.82
2023-05-14T23:24:15.939Z,5.72
2023-05-14T23:26:44.110Z,4.15
2023-05-14T23:29:12.275Z,5.35
2023-05-14T23:31:41.116Z,5.47
2023-05-14T23:34:09.245Z,5.30
2023-05-14T23:36:37.722Z,5.90
2023-05-14T23:39:07.154Z,5.07
2023-05-14T23:41:35.256Z,5.03
2023-05-14T23:44:03.479Z,4.90
2023-05-14T23:46:31.765Z,4.47
2023-05-14T23:49:00.026Z,4.60
2023-05-14T23:51:28.379Z,4.55
2023-05-14T23:53:58.671Z,4.43
2023-05-14T23:56:29.168Z,4.25
2023-05-14T23:58:57.587Z,4.72
